createdAt,value
2019-01-05T00:00:18.753Z,15.70
2019-01-05T00:03:04.372Z,14.07
2019-01-05T00:06:03.677Z,12.60
2019-01-05T00:08:53.794Z,15.23
2019-01-05T00:11:43.657Z,13.43
2019-01-05T00:14:29.337Z,15.37
2019-01-05T00:17:15.613Z,14.30
2019-01-05T00:20:07.985Z,14.47
2019-01-05T00:22:55.121Z,12.40
2019-01-05T00:25:54.513Z,13.13
2019-01-05T00:28:47.792Z,12.63
2019-01-05T00:31:45.453Z,13.20
2019-01-05T00:34:47.685Z,14.23
2019-01-05T00:37:38.378Z,13.27
2019-01-05T00:40:24.606Z,13.30
2019-01-05T00:43:22.182Z,12.60
2019-01-05T00:46:09.868Z,13.13
2019-01-05T00:48:57.098Z,12.77
2019-01-05T00:51:46.811Z,12.43
2019-01-05T00:54:36.869Z,12.67
2019-01-05T00:57:27.602Z,11.77
2019-01-05T01:00:11.412Z,12.33
2019-01-05T01:03:07.459Z,11.93
2019-01-05T01:05:53.276Z,11.93
2019-01-05T01:08:55.477Z,11.50
2019-01-05T01:11:38.825Z,11.03
2019-01-05T01:14:24.565Z,10.93
2019-01-05T01:17:17.666Z,10.10
2019-01-05T01:20:10.476Z,10.67
2019-01-05T01:23:05.280Z,11.17
2019-01-05T01:25:51.913Z,10.80
2019-01-05T01:28:51.171Z,10.83
2019-01-05T01:31:37.373Z,10.80
2019-01-05T01:34:32.682Z,11.17
2019-01-05T01:37:26.449Z,10.23
2019-01-05T01:40:27.693Z,10.40
2019-01-05T01:43:22.149Z,10.27
2019-01-05T01:46:25.019Z,11.27
2019-01-05T01:49:15.516Z,9.93
2019-01-05T01:52:01.704Z,10.40
2019-01-05T01:54:58.465Z,11.30
2019-01-05T01:57:46.034Z,13.95
2019-01-05T02:00:32.715Z,10.37
2019-01-05T02:03:22.114Z,12.50
2019-01-05T02:06:07.950Z,10.70
2019-01-05T02:09:10.506Z,11.40
2019-01-05T02:12:12.732Z,10.17
2019-01-05T02:15:05.182Z,11.17
2019-01-05T02:18:04.245Z,10.13
2019-01-05T02:21:03.547Z,10.27
2019-01-05T02:24:56.131Z,10.90
2019-01-05T02:28:05.487Z,8.67
2019-01-05T02:31:26.916Z,11.40
2019-01-05T02:35:00.773Z,11.47
2019-01-05T02:38:29.640Z,10.83
2019-01-05T02:41:41.593Z,11.23
2019-01-05T02:45:19.707Z,12.13
2019-01-05T02:48:43.487Z,12.00
2019-01-05T02:52:26.734Z,10.47
2019-01-05T02:56:28.387Z,11.53
2019-01-05T03:00:01.617Z,11.13
2019-01-05T03:03:33.890Z,11.97
2019-01-05T03:07:07.153Z,11.10
2019-01-05T03:10:56.660Z,11.50
2019-01-05T03:14:33.621Z,11.87
2019-01-05T03:18:09.090Z,10.60
2019-01-05T03:21:34.232Z,11.10
2019-01-05T03:25:10.808Z,11.37
2019-01-05T03:28:38.222Z,10.27
2019-01-05T03:32:17.046Z,11.77
2019-01-05T03:35:34.264Z,11.03
2019-01-05T03:39:17.003Z,9.83
2019-01-05T03:42:51.757Z,9.03
2019-01-05T03:46:15.178Z,11.23
2019-01-05T03:49:41.216Z,10.27
2019-01-05T03:53:08.476Z,10.07
2019-01-05T03:56:35.782Z,10.73
2019-01-05T03:59:50.385Z,10.10
2019-01-05T04:03:01.784Z,10.43
2019-01-05T04:06:25.702Z,10.83
2019-01-05T04:09:57.995Z,10.20
2019-01-05T04:13:15.532Z,9.90
2019-01-05T04:17:23.722Z,10.03
2019-01-05T04:20:46.075Z,9.97
2019-01-05T04:24:13.915Z,9.43
2019-01-05T04:28:05.939Z,10.63
2019-01-05T04:31:45.265Z,8.67
2019-01-05T04:35:45.899Z,9.27
2019-01-05T04:39:27.682Z,9.00
2019-01-05T04:42:59.089Z,9.83
2019-01-05T04:46:46.347Z,9.50
2019-01-05T04:50:32.342Z,9.00
2019-01-05T04:54:06.729Z,8.07
2019-01-05T04:57:42.598Z,9.90
2019-01-05T05:01:37.493Z,10.53
2019-01-05T05:05:07.194Z,10.50
2019-01-05T05:08:37.178Z,10.50
2019-01-05T05:11:50.987Z,10.20
2019-01-05T05:15:13.702Z,8.37
2019-01-05T05:18:27.586Z,8.47
2019-01-05T05:21:49.680Z,6.73
2019-01-05T05:25:28.603Z,8.13
2019-01-05T05:29:18.665Z,9.30
2019-01-05T05:32:52.243Z,7.77
2019-01-05T05:36:54.331Z,9.10
2019-01-05T05:40:18.042Z,8.30
2019-01-05T05:43:50.685Z,7.83
2019-01-05T05:47:22.984Z,8.63
2019-01-05T05:51:07.879Z,7.77
2019-01-05T05:54:59.430Z,7.53
2019-01-05T05:58:21.628Z,7.57
2019-01-05T06:01:52.862Z,7.37
2019-01-05T06:05:29.262Z,6.80
2019-01-05T06:09:19.474Z,6.77
2019-01-05T06:12:54.512Z,6.90
2019-01-05T06:16:07.698Z,6.97
2019-01-05T06:19:40.125Z,7.50
2019-01-05T06:23:22.718Z,8.27
2019-01-05T06:26:32.604Z,7.50
2019-01-05T06:30:15.766Z,8.67
2019-01-05T06:34:13.314Z,8.43
2019-01-05T06:37:44.231Z,12.20
2019-01-05T06:41:01.613Z,10.70
2019-01-05T06:44:29.150Z,14.20
2019-01-05T06:48:12.853Z,11.87
2019-01-05T06:51:42.670Z,13.57
2019-01-05T06:55:15.260Z,12.60
2019-01-05T06:58:41.040Z,11.47
2019-01-05T07:02:17.961Z,11.10
2019-01-05T07:05:53.271Z,14.33
2019-01-05T07:09:42.200Z,12.67
2019-01-05T07:13:37.714Z,12.80
2019-01-05T07:17:21.507Z,12.13
2019-01-05T07:21:13.037Z,11.93
2019-01-05T07:24:26.193Z,13.10
2019-01-05T07:27:49.653Z,13.90
2019-01-05T07:31:31.835Z,13.83
2019-01-05T07:34:55.581Z,12.97
2019-01-05T07:38:33.534Z,12.90
2019-01-05T07:42:16.419Z,13.27
2019-01-05T07:45:42.354Z,14.50
2019-01-05T07:49:06.232Z,13.93
2019-01-05T07:52:28.492Z,13.87
2019-01-05T07:55:51.110Z,12.00
2019-01-05T07:59:31.091Z,13.10
2019-01-05T08:03:04.484Z,12.23
2019-01-05T08:06:34.614Z,9.60
2019-01-05T08:10:14.143Z,10.27
2019-01-05T08:13:36.514Z,10.17
2019-01-05T08:17:02.105Z,10.07
2019-01-05T08:20:28.088Z,11.33
2019-01-05T08:23:28.510Z,9.37
2019-01-05T08:26:53.047Z,9.67
2019-01-05T08:30:15.184Z,11.03
2019-01-05T08:33:30.026Z,11.00
2019-01-05T08:37:01.276Z,11.30
2019-01-05T08:40:40.063Z,9.57
2019-01-05T08:44:03.343Z,11.03
2019-01-05T08:47:36.342Z,10.53
2019-01-05T08:50:57.575Z,10.20
2019-01-05T08:54:38.316Z,10.57
2019-01-05T08:58:17.890Z,9.87
2019-01-05T09:02:01.057Z,10.20
2019-01-05T09:05:38.444Z,11.80
2019-01-05T09:09:43.344Z,10.17
2019-01-05T09:13:05.827Z,8.83
2019-01-05T09:16:35.567Z,9.63
2019-01-05T09:20:11.280Z,8.13
2019-01-05T09:23:53.461Z,10.30
2019-01-05T09:27:20.826Z,10.20
2019-01-05T09:30:58.118Z,9.50
2019-01-05T09:34:41.423Z,10.00
2019-01-05T09:38:11.473Z,10.60
2019-01-05T09:41:55.938Z,10.13
2019-01-05T09:45:32.214Z,9.90
2019-01-05T09:48:59.391Z,10.23
2019-01-05T09:52:22.516Z,10.63
2019-01-05T09:56:05.536Z,9.97
2019-01-05T09:59:36.724Z,10.60
2019-01-05T10:03:39.206Z,10.43
2019-01-05T10:07:00.448Z,9.97
2019-01-05T10:10:17.876Z,11.60
2019-01-05T10:14:07.492Z,9.13
2019-01-05T10:17:33.695Z,9.80
2019-01-05T10:21:11.352Z,11.97
2019-01-05T10:25:09.042Z,11.53
2019-01-05T10:28:43.268Z,13.27
2019-01-05T10:32:18.220Z,8.93
2019-01-05T10:35:51.769Z,11.50
2019-01-05T10:39:33.383Z,9.43
2019-01-05T10:43:08.113Z,9.17
2019-01-05T10:46:37.061Z,11.20
2019-01-05T10:49:36.324Z,10.73
2019-01-05T10:53:06.026Z,10.23
2019-01-05T10:56:29.134Z,9.00
2019-01-05T10:59:43.291Z,9.87
2019-01-05T11:03:24.077Z,9.93
2019-01-05T11:06:49.893Z,10.53
2019-01-05T11:10:36.298Z,11.53
2019-01-05T11:14:10.576Z,9.17
2019-01-05T11:17:49.885Z,9.57
2019-01-05T11:21:30.611Z,10.67
2019-01-05T11:25:16.452Z,9.17
2019-01-05T11:28:50.301Z,11.37
2019-01-05T11:32:04.136Z,10.70
2019-01-05T11:35:27.930Z,10.43
2019-01-05T11:38:58.482Z,9.63
2019-01-05T11:42:17.002Z,10.87
2019-01-05T11:45:46.373Z,11.80
2019-01-05T11:49:01.080Z,9.73
2019-01-05T11:52:38.489Z,10.20
2019-01-05T11:56:04.684Z,10.70
2019-01-05T11:59:57.205Z,9.63
2019-01-05T12:03:34.694Z,10.33
2019-01-05T12:07:16.646Z,10.43
2019-01-05T12:11:02.686Z,11.43
2019-01-05T12:14:51.323Z,11.87
2019-01-05T12:18:39.905Z,12.17
2019-01-05T12:22:06.991Z,11.63
2019-01-05T12:25:54.577Z,9.30
2019-01-05T12:29:25.369Z,10.00
2019-01-05T12:33:11.809Z,9.60
2019-01-05T12:36:41.209Z,9.37
2019-01-05T12:40:27.520Z,9.37
2019-01-05T12:43:58.228Z,9.93
2019-01-05T12:47:43.045Z,9.20
2019-01-05T12:51:04.848Z,10.73
2019-01-05T12:54:26.544Z,10.33
2019-01-05T12:57:39.136Z,9.47
2019-01-05T13:01:01.816Z,10.03
2019-01-05T13:04:44.039Z,10.70
2019-01-05T13:08:35.345Z,9.37
2019-01-05T13:12:13.507Z,11.30
2019-01-05T13:15:55.894Z,10.33
2019-01-05T13:19:21.319Z,12.77
2019-01-05T13:22:41.853Z,11.40
2019-01-05T13:26:31.698Z,10.70
2019-01-05T13:30:00.647Z,10.50
2019-01-05T13:33:53.627Z,10.07
2019-01-05T13:37:24.281Z,10.57
2019-01-05T13:40:35.362Z,14.23
2019-01-05T13:44:06.477Z,10.67
2019-01-05T13:47:36.433Z,9.67
2019-01-05T13:51:08.301Z,12.57
2019-01-05T13:54:18.403Z,10.67
2019-01-05T13:57:05.641Z,9.40
2019-01-05T13:59:58.390Z,10.07
2019-01-05T14:02:48.757Z,11.17
2019-01-05T14:05:38.818Z,10.63
2019-01-05T14:08:24.635Z,14.23
2019-01-05T14:11:20.955Z,10.53
2019-01-05T14:14:07.047Z,9.63
2019-01-05T14:16:52.835Z,9.33
2019-01-05T14:19:38.350Z,10.30
2019-01-05T14:22:24.012Z,9.97
2019-01-05T14:25:11.267Z,9.13
2019-01-05T14:28:07.506Z,10.30
2019-01-05T14:30:51.734Z,9.40
2019-01-05T14:33:52.639Z,9.07
2019-01-05T14:36:42.648Z,9.47
2019-01-05T14:39:29.954Z,8.93
2019-01-05T14:42:17.303Z,8.83
2019-01-05T14:45:02.896Z,8.13
2019-01-05T14:48:05.512Z,10.43
2019-01-05T14:50:51.144Z,8.43
2019-01-05T14:53:50.404Z,9.17
2019-01-05T14:56:37.515Z,13.23
2019-01-05T14:59:27.885Z,8.90
2019-01-05T15:02:13.386Z,9.87
2019-01-05T15:05:03.505Z,9.87
2019-01-05T15:07:49.766Z,9.23
2019-01-05T15:10:55.279Z,10.70
2019-01-05T15:13:41.156Z,11.43
2019-01-05T15:16:34.042Z,9.60
2019-01-05T15:19:19.628Z,10.70
2019-01-05T15:22:05.599Z,9.97
2019-01-05T15:24:51.283Z,11.07
2019-01-05T15:27:38.354Z,12.50
2019-01-05T15:30:31.739Z,10.67
2019-01-05T15:33:17.836Z,10.87
2019-01-05T15:36:14.322Z,11.77
2019-01-05T15:39:09.854Z,12.10
2019-01-05T15:42:09.359Z,10.87
2019-01-05T15:44:55.565Z,12.07
2019-01-05T15:47:42.664Z,12.13
2019-01-05T15:50:28.096Z,11.20
2019-01-05T15:53:20.926Z,12.07
2019-01-05T15:56:10.648Z,12.23
2019-01-05T15:58:56.297Z,11.77
2019-01-05T16:01:49.658Z,12.07
2019-01-05T16:04:45.877Z,13.20
2019-01-05T16:07:31.849Z,12.73
2019-01-05T16:10:18.864Z,13.00
2019-01-05T16:13:12.092Z,16.27
2019-01-05T16:15:57.914Z,14.03
2019-01-05T16:18:43.476Z,12.80
2019-01-05T16:21:33.250Z,11.33
2019-01-05T16:24:18.757Z,11.40
2019-01-05T16:27:05.801Z,12.27
2019-01-05T16:29:52.916Z,12.37
2019-01-05T16:32:43.404Z,11.33
2019-01-05T16:35:29.279Z,13.60
2019-01-05T16:38:14.821Z,14.30
2019-01-05T16:40:56.563Z,14.57
2019-01-05T16:43:42.066Z,15.33
2019-01-05T16:46:40.808Z,15.17
2019-01-05T16:49:40.150Z,13.57
2019-01-05T16:52:26.089Z,13.67
2019-01-05T16:55:28.123Z,12.17
2019-01-05T16:58:13.995Z,12.57
2019-01-05T17:01:04.120Z,12.70
2019-01-05T17:03:57.360Z,13.07
2019-01-05T17:06:53.477Z,11.83
2019-01-05T17:09:39.109Z,12.27
2019-01-05T17:12:29.241Z,12.97
2019-01-05T17:15:16.727Z,13.33
2019-01-05T17:18:12.721Z,14.10
2019-01-05T17:21:11.772Z,13.23
2019-01-05T17:23:57.326Z,12.33
2019-01-05T17:26:46.450Z,12.67
2019-01-05T17:29:37.903Z,13.90
2019-01-05T17:32:27.716Z,13.33
2019-01-05T17:35:14.767Z,13.27
2019-01-05T17:38:12.947Z,23.37
2019-01-05T17:40:58.699Z,15.17
2019-01-05T17:43:44.234Z,13.67
2019-01-05T17:46:30.034Z,14.40
2019-01-05T17:49:28.971Z,13.20
2019-01-05T17:52:28.221Z,28.60
2019-01-05T17:55:21.320Z,15.33
2019-01-05T17:58:06.842Z,13.03
2019-01-05T18:01:02.867Z,11.57
2019-01-05T18:03:52.750Z,13.57
2019-01-05T18:06:38.837Z,12.07
2019-01-05T18:09:29.241Z,12.67
2019-01-05T18:12:15.050Z,10.03
2019-01-05T18:15:13.985Z,14.30
2019-01-05T18:17:59.552Z,13.03
2019-01-05T18:21:01.608Z,12.93
2019-01-05T18:24:03.728Z,11.63
2019-01-05T18:26:53.834Z,15.63
2019-01-05T18:29:53.130Z,13.80
2019-01-05T18:32:42.951Z,19.43
2019-01-05T18:35:47.485Z,16.77
2019-01-05T18:38:34.432Z,12.10
2019-01-05T18:41:20.134Z,13.67
2019-01-05T18:44:07.118Z,12.47
2019-01-05T18:47:00.591Z,15.10
2019-01-05T18:49:59.478Z,13.40
2019-01-05T18:52:45.079Z,12.10
2019-01-05T18:55:42.133Z,12.97
2019-01-05T18:58:47.910Z,13.70
2019-01-05T19:01:38.022Z,14.73
2019-01-05T19:04:34.364Z,13.27
2019-01-05T19:07:30.184Z,12.90
2019-01-05T19:10:23.319Z,13.03
2019-01-05T19:13:04.896Z,14.93
2019-01-05T19:15:54.606Z,12.83
2019-01-05T19:18:46.051Z,13.90
2019-01-05T19:21:38.899Z,12.87
2019-01-05T19:24:29.085Z,14.20
2019-01-05T19:27:15.754Z,11.93
2019-01-05T19:30:02.741Z,15.43
2019-01-05T19:32:48.527Z,14.57
2019-01-05T19:35:35.710Z,14.00
2019-01-05T19:38:37.638Z,12.33
2019-01-05T19:41:30.605Z,15.57
2019-01-05T19:44:30.718Z,19.40
2019-01-05T19:47:16.483Z,22.60
2019-01-05T19:50:03.553Z,27.47
2019-01-05T19:52:49.745Z,23.73
2019-01-05T19:55:36.756Z,21.30
2019-01-05T19:58:32.510Z,26.07
2019-01-05T20:01:28.326Z,26.83
2019-01-05T20:04:24.322Z,31.03
2019-01-05T20:07:14.629Z,31.10
2019-01-05T20:09:54.023Z,27.67
2019-01-05T20:12:47.091Z,28.40
2019-01-05T20:15:32.936Z,28.03
2019-01-05T20:18:14.149Z,28.53
2019-01-05T20:21:16.385Z,24.10
2019-01-05T20:23:58.558Z,29.87
2019-01-05T20:26:58.030Z,27.57
2019-01-05T20:29:44.089Z,25.50
2019-01-05T20:32:29.815Z,27.10
2019-01-05T20:35:23.653Z,25.20
2019-01-05T20:38:29.094Z,21.93
2019-01-05T20:41:16.176Z,24.47
2019-01-05T20:44:02.115Z,24.67
2019-01-05T20:47:04.416Z,23.20
2019-01-05T20:49:50.116Z,23.23
2019-01-05T20:52:49.420Z,23.17
2019-01-05T20:55:36.586Z,21.73
2019-01-05T20:58:29.542Z,24.37
2019-01-05T21:01:19.955Z,21.13
2019-01-05T21:04:05.697Z,21.77
2019-01-05T21:06:52.804Z,23.53
2019-01-05T21:09:38.256Z,23.60
2019-01-05T21:12:26.279Z,24.03
2019-01-05T21:15:22.171Z,24.80
2019-01-05T21:18:21.436Z,23.20
2019-01-05T21:21:07.451Z,24.93
2019-01-05T21:23:57.334Z,22.00
2019-01-05T21:26:59.677Z,22.10
2019-01-05T21:29:58.722Z,24.07
2019-01-05T21:32:48.452Z,21.77
2019-01-05T21:35:32.761Z,22.40
2019-01-05T21:38:32.988Z,20.90
2019-01-05T21:41:38.057Z,22.40
2019-01-05T21:44:23.768Z,22.57
2019-01-05T21:47:06.243Z,21.90
2019-01-05T21:49:51.523Z,19.70
2019-01-05T21:52:41.383Z,25.70
2019-01-05T21:55:40.916Z,22.17
2019-01-05T21:58:43.187Z,20.63
2019-01-05T22:01:30.177Z,21.80
2019-01-05T22:04:26.422Z,21.67
2019-01-05T22:07:13.583Z,16.03
2019-01-05T22:09:52.089Z,21.57
2019-01-05T22:12:34.344Z,20.07
2019-01-05T22:15:21.442Z,20.63
2019-01-05T22:18:07.140Z,19.90
2019-01-05T22:20:43.670Z,18.57
2019-01-05T22:23:29.459Z,18.70
2019-01-05T22:26:15.194Z,18.03
2019-01-05T22:29:00.803Z,19.67
2019-01-05T22:31:50.575Z,19.10
2019-01-05T22:34:36.351Z,20.97
2019-01-05T22:37:21.863Z,17.67
2019-01-05T22:40:14.747Z,19.80
2019-01-05T22:43:10.890Z,18.30
2019-01-05T22:45:57.964Z,18.73
2019-01-05T22:48:43.647Z,17.40
2019-01-05T22:51:29.652Z,17.33
2019-01-05T22:54:16.780Z,17.73
2019-01-05T22:57:09.825Z,16.40
2019-01-05T23:00:01.968Z,17.07
2019-01-05T23:02:49.002Z,15.27
2019-01-05T23:05:34.721Z,18.10
2019-01-05T23:08:20.656Z,16.43
2019-01-05T23:11:06.335Z,17.93
2019-01-05T23:14:02.466Z,15.93
2019-01-05T23:16:58.424Z,16.63
2019-01-05T23:19:48.120Z,20.63
2019-01-05T23:22:33.849Z,18.43
2019-01-05T23:25:20.909Z,19.70
2019-01-05T23:28:17.131Z,14.10
2019-01-05T23:31:13.203Z,15.43
2019-01-05T23:33:59.203Z,17.17
2019-01-05T23:36:44.798Z,21.70
2019-01-05T23:39:37.598Z,19.50
2019-01-05T23:42:24.688Z,17.20
2019-01-05T23:45:14.582Z,17.73
2019-01-05T23:48:07.632Z,15.97
2019-01-05T23:50:57.571Z,16.80
2019-01-05T23:54:03.090Z,16.83
2019-01-05T23:56:52.584Z,15.60
2019-01-05T23:59:37.434Z,16.13
